createdAt,value
2022-09-12T00:01:20.095Z,98296.06
2022-09-12T00:03:47.213Z,98314.28
2022-09-12T00:06:23.485Z,98332.38
2022-09-12T00:08:51.579Z,98367.47
2022-09-12T00:11:18.149Z,98213.28
2022-09-12T00:13:44.734Z,98364.03
2022-09-12T00:16:20.643Z,98342.53
2022-09-12T00:18:48.047Z,98328.94
2022-09-12T00:21:15.927Z,98259.56
2022-09-12T00:23:42.464Z,98365.56
2022-09-12T00:26:09.319Z,98189.34
2022-09-12T00:28:37.471Z,98303.94
2022-09-12T00:31:11.340Z,98370.47
2022-09-12T00:33:38.194Z,98372.13
2022-09-12T00:36:08.161Z,98374.84
2022-09-12T00:38:38.435Z,98376.78
2022-09-12T00:41:05.879Z,98339.97
2022-09-12T00:43:36.306Z,98302.66
2022-09-12T00:46:10.503Z,98360.34
2022-09-12T00:48:45.179Z,98373.38
2022-09-12T00:51:12.486Z,98363.34
2022-09-12T00:53:41.986Z,98285.47
2022-09-12T00:56:08.934Z,98367.88
2022-09-12T00:58:47.733Z,98254.34
2022-09-12T01:01:14.492Z,98360.06
2022-09-12T01:03:41.673Z,98235.44
2022-09-12T01:06:27.091Z,98363.75
2022-09-12T01:08:54.978Z,98274.06
2022-09-12T01:11:22.556Z,98361.03
2022-09-12T01:13:50.647Z,98370.19
2022-09-12T01:16:17.488Z,98228.97
2022-09-12T01:19:09.150Z,98369.91
2022-09-12T01:21:44.794Z,98363.75
2022-09-12T01:24:38.096Z,98293.50
2022-09-12T01:27:28.854Z,98365.41
2022-09-12T01:30:05.118Z,98376.25
2022-09-12T01:32:53.855Z,98367.47
2022-09-12T01:35:35.816Z,98337.06
2022-09-12T01:38:29.540Z,98374.69
2022-09-12T01:41:19.462Z,98262.41
2022-09-12T01:44:03.817Z,98376.78
2022-09-12T01:46:33.896Z,98373.63
2022-09-12T01:49:07.001Z,98382.53
2022-09-12T01:51:42.498Z,98382.13
2022-09-12T01:54:15.948Z,98378.44
2022-09-12T01:56:45.886Z,98411.31
2022-09-12T01:59:35.428Z,98357.03
2022-09-12T02:02:29.079Z,98226.28
2022-09-12T02:05:06.924Z,98371.84
2022-09-12T02:07:40.396Z,98382.63
2022-09-12T02:10:14.093Z,98197.53
2022-09-12T02:12:49.954Z,98381.50
2022-09-12T02:15:21.000Z,98319.09
2022-09-12T02:17:50.617Z,98348.47
2022-09-12T02:20:44.371Z,98364.09
2022-09-12T02:23:15.726Z,98382.34
2022-09-12T02:25:45.857Z,98392.03
2022-09-12T02:28:15.317Z,98391.91
2022-09-12T02:31:01.272Z,98399.59
2022-09-12T02:33:35.323Z,98264.25
2022-09-12T02:36:27.996Z,98291.66
2022-09-12T02:38:55.449Z,98261.78
2022-09-12T02:41:22.658Z,98296.19
2022-09-12T02:43:51.572Z,98428.91
2022-09-12T02:46:26.781Z,98438.47
2022-09-12T02:48:54.483Z,98227.72
2022-09-12T02:51:23.857Z,98267.28
2022-09-12T02:53:50.964Z,98368.72
2022-09-12T02:56:24.901Z,98404.28
2022-09-12T02:58:52.790Z,98407.69
2022-09-12T03:01:41.247Z,98413.38
2022-09-12T03:04:33.031Z,98408.09
2022-09-12T03:07:18.201Z,98407.66
2022-09-12T03:09:47.540Z,98411.59
2022-09-12T03:12:31.478Z,98442.94
2022-09-12T03:15:04.112Z,98407.75
2022-09-12T03:17:39.893Z,98481.53
2022-09-12T03:20:12.723Z,98363.13
2022-09-12T03:22:41.993Z,98412.84
2022-09-12T03:25:16.135Z,98403.66
2022-09-12T03:28:09.623Z,98428.72
2022-09-12T03:30:41.059Z,98411.47
2022-09-12T03:33:12.451Z,98415.97
2022-09-12T03:35:39.148Z,98355.06
2022-09-12T03:38:07.971Z,98416.94
2022-09-12T03:40:38.632Z,98424.03
2022-09-12T03:43:07.498Z,98466.03
2022-09-12T03:45:35.400Z,98316.13
2022-09-12T03:48:02.124Z,98425.53
2022-09-12T03:50:28.738Z,98425.81
2022-09-12T03:52:56.256Z,98434.56
2022-09-12T03:55:22.957Z,98431.41
2022-09-12T03:57:53.039Z,98315.66
2022-09-12T04:00:20.048Z,98425.69
2022-09-12T04:02:46.664Z,98301.31
2022-09-12T04:05:13.314Z,98403.94
2022-09-12T04:07:39.977Z,98436.91
2022-09-12T04:10:07.155Z,98417.06
2022-09-12T04:12:35.500Z,98397.13
2022-09-12T04:15:02.239Z,98438.75
2022-09-12T04:17:28.835Z,98453.97
2022-09-12T04:19:55.326Z,98451.81
2022-09-12T04:22:21.930Z,98357.22
2022-09-12T04:24:48.427Z,98408.00
2022-09-12T04:27:14.910Z,98331.06
2022-09-12T04:29:41.474Z,98462.34
2022-09-12T04:32:07.923Z,98467.28
2022-09-12T04:34:34.374Z,98473.31
2022-09-12T04:37:00.863Z,98478.22
2022-09-12T04:39:27.486Z,98470.84
2022-09-12T04:41:54.339Z,98467.31
2022-09-12T04:44:20.900Z,98450.94
2022-09-12T04:46:47.780Z,98492.19
2022-09-12T04:49:19.408Z,98484.91
2022-09-12T04:51:46.708Z,98355.59
2022-09-12T04:54:19.124Z,98482.81
2022-09-12T04:56:50.583Z,98455.75
2022-09-12T04:59:19.779Z,98391.84
2022-09-12T05:01:46.631Z,98482.75
2022-09-12T05:04:13.462Z,98416.25
2022-09-12T05:06:40.892Z,98463.09
2022-09-12T05:09:11.228Z,98484.53
2022-09-12T05:12:03.746Z,98167.59
2022-09-12T05:14:26.763Z,98421.56
2022-09-12T05:16:53.365Z,98357.69
2022-09-12T05:19:20.033Z,98384.22
2022-09-12T05:21:46.566Z,98421.78
2022-09-12T05:24:13.114Z,98399.13
2022-09-12T05:26:39.816Z,98468.94
2022-09-12T05:29:07.136Z,98458.41
2022-09-12T05:31:34.040Z,98496.78
2022-09-12T05:34:00.715Z,98461.31
2022-09-12T05:36:32.019Z,98442.03
2022-09-12T05:39:00.423Z,98533.94
2022-09-12T05:41:32.888Z,98509.59
2022-09-12T05:44:02.711Z,98501.66
2022-09-12T05:46:31.566Z,98496.59
2022-09-12T05:49:04.532Z,98500.84
2022-09-12T05:51:34.223Z,98503.31
2022-09-12T05:54:05.699Z,98456.03
2022-09-12T05:56:34.783Z,98450.56
2022-09-12T05:59:03.918Z,98442.72
2022-09-12T06:01:32.654Z,98507.13
2022-09-12T06:04:01.326Z,98390.50
2022-09-12T06:06:30.091Z,98511.63
2022-09-12T06:08:59.105Z,98345.19
2022-09-12T06:11:27.391Z,98515.09
2022-09-12T06:13:55.098Z,98519.47
2022-09-12T06:16:24.666Z,98530.97
2022-09-12T06:18:56.187Z,98422.19
2022-09-12T06:21:24.139Z,98526.66
2022-09-12T06:23:51.007Z,98478.50
2022-09-12T06:26:21.433Z,98537.31
2022-09-12T06:28:48.180Z,98527.97
2022-09-12T06:31:22.261Z,98434.53
2022-09-12T06:33:51.817Z,98531.97
2022-09-12T06:36:24.620Z,98531.84
2022-09-12T06:39:08.206Z,98542.56
2022-09-12T06:41:35.251Z,98428.06
2022-09-12T06:44:02.522Z,98514.72
2022-09-12T06:46:29.455Z,98540.13
2022-09-12T06:48:57.057Z,98424.19
2022-09-12T06:51:23.696Z,98555.56
2022-09-12T06:53:50.386Z,98289.06
2022-09-12T06:56:21.939Z,98512.69
2022-09-12T06:58:50.410Z,98467.47
2022-09-12T07:01:25.271Z,98541.31
2022-09-12T07:03:53.805Z,98557.53
2022-09-12T07:06:22.397Z,98492.63
2022-09-12T07:08:48.987Z,98561.38
2022-09-12T07:11:23.921Z,98465.59
2022-09-12T07:13:53.680Z,98573.94
2022-09-12T07:16:20.454Z,98548.03
2022-09-12T07:18:54.714Z,98492.50
2022-09-12T07:21:21.677Z,98579.72
2022-09-12T07:23:49.193Z,98437.28
2022-09-12T07:26:16.521Z,98438.59
2022-09-12T07:28:44.138Z,98519.97
2022-09-12T07:31:18.193Z,98581.44
2022-09-12T07:33:44.905Z,98577.75
2022-09-12T07:36:14.313Z,98697.06
2022-09-12T07:38:41.954Z,98584.69
2022-09-12T07:41:19.520Z,98557.97
2022-09-12T07:43:46.460Z,98586.31
2022-09-12T07:46:14.433Z,98555.16
2022-09-12T07:48:41.105Z,98590.78
2022-09-12T07:51:10.861Z,98581.66
2022-09-12T07:53:40.121Z,98355.16
2022-09-12T07:56:10.232Z,98472.75
2022-09-12T07:58:38.238Z,98599.56
2022-09-12T08:01:13.295Z,98411.81
2022-09-12T08:03:41.521Z,98604.72
2022-09-12T08:06:09.818Z,98594.97
2022-09-12T08:08:37.538Z,98598.25
2022-09-12T08:11:09.261Z,98436.50
2022-09-12T08:13:37.433Z,98614.63
2022-09-12T08:16:06.657Z,98585.63
2022-09-12T08:18:35.647Z,98600.53
2022-09-12T08:21:05.473Z,98602.44
2022-09-12T08:23:33.587Z,98582.94
2022-09-12T08:26:06.106Z,98457.53
2022-09-12T08:28:35.440Z,98365.69
2022-09-12T08:31:06.870Z,98605.38
2022-09-12T08:33:34.062Z,98518.97
2022-09-12T08:36:05.161Z,98591.47
2022-09-12T08:38:32.531Z,98581.03
2022-09-12T08:41:14.588Z,98648.41
2022-09-12T08:43:59.446Z,98607.66
2022-09-12T08:46:39.104Z,98613.31
2022-09-12T08:49:12.284Z,98374.56
2022-09-12T08:51:39.980Z,98612.34
2022-09-12T08:54:19.580Z,98496.38
2022-09-12T08:56:47.766Z,98519.34
2022-09-12T08:59:15.274Z,98581.72
2022-09-12T09:01:44.626Z,98615.34
2022-09-12T09:04:14.206Z,98623.97
2022-09-12T09:07:01.092Z,98532.25
2022-09-12T09:10:00.777Z,98619.84
2022-09-12T09:12:48.496Z,98626.28
2022-09-12T09:15:21.361Z,98632.31
2022-09-12T09:17:51.027Z,98629.13
2022-09-12T09:20:29.949Z,98637.22
2022-09-12T09:23:15.562Z,98629.41
2022-09-12T09:26:07.757Z,98626.34
2022-09-12T09:28:42.327Z,98633.91
2022-09-12T09:31:17.104Z,98629.31
2022-09-12T09:33:46.429Z,98635.81
2022-09-12T09:36:50.367Z,98635.81
2022-09-12T09:39:44.823Z,98680.41
2022-09-12T09:42:42.565Z,98638.59
2022-09-12T09:45:19.385Z,98603.97
2022-09-12T09:48:10.826Z,98637.00
2022-09-12T09:50:38.708Z,98641.81
2022-09-12T09:53:11.386Z,98651.28
2022-09-12T09:55:42.255Z,98662.41
2022-09-12T09:58:08.758Z,98540.56
2022-09-12T10:00:37.323Z,98619.63
2022-09-12T10:03:10.178Z,98611.22
2022-09-12T10:05:48.481Z,98597.91
2022-09-12T10:08:27.480Z,98608.63
2022-09-12T10:11:20.233Z,98653.91
2022-09-12T10:13:59.970Z,98656.41
2022-09-12T10:16:29.393Z,98663.25
2022-09-12T10:19:01.539Z,98685.47
2022-09-12T10:21:41.279Z,98553.84
2022-09-12T10:24:21.147Z,98670.66
2022-09-12T10:26:56.931Z,98669.00
2022-09-12T10:29:33.284Z,98609.66
2022-09-12T10:32:04.849Z,98716.75
2022-09-12T10:34:37.248Z,98568.28
2022-09-12T10:37:07.279Z,98699.19
2022-09-12T10:39:37.695Z,98550.00
2022-09-12T10:42:05.729Z,98556.00
2022-09-12T10:44:34.961Z,98664.16
2022-09-12T10:47:20.629Z,98648.06
2022-09-12T10:49:47.188Z,98597.03
2022-09-12T10:52:25.633Z,98712.91
2022-09-12T10:54:52.270Z,98353.97
2022-09-12T10:57:51.645Z,98527.59
2022-09-12T11:00:20.479Z,98639.72
2022-09-12T11:03:16.377Z,98677.88
2022-09-12T11:05:56.473Z,98655.06
2022-09-12T11:08:28.839Z,98686.25
2022-09-12T11:11:04.618Z,98629.78
2022-09-12T11:13:55.683Z,98690.63
2022-09-12T11:16:49.364Z,98703.88
2022-09-12T11:19:40.886Z,98697.34
2022-09-12T11:22:16.114Z,98704.34
2022-09-12T11:25:12.212Z,98702.56
2022-09-12T11:27:54.015Z,98698.47
2022-09-12T11:30:20.571Z,98708.06
2022-09-12T11:33:13.522Z,98701.19
2022-09-12T11:35:55.300Z,98707.53
2022-09-12T11:38:59.033Z,98701.19
2022-09-12T11:41:33.703Z,98700.75
2022-09-12T11:44:04.610Z,98712.97
2022-09-12T11:46:39.495Z,98533.75
2022-09-12T11:49:15.598Z,98713.28
2022-09-12T11:51:49.750Z,98706.44
2022-09-12T11:55:01.709Z,98647.50
2022-09-12T11:57:48.422Z,98728.47
2022-09-12T12:00:17.713Z,98764.44
2022-09-12T12:03:13.867Z,98725.28
2022-09-12T12:05:55.345Z,98730.13
2022-09-12T12:08:24.063Z,98727.91
2022-09-12T12:10:56.248Z,98724.63
2022-09-12T12:13:38.651Z,98726.09
2022-09-12T12:16:21.217Z,98733.31
2022-09-12T12:19:19.984Z,98728.50
2022-09-12T12:21:48.305Z,98728.91
2022-09-12T12:24:17.689Z,98729.00
2022-09-12T12:26:53.018Z,98726.25
2022-09-12T12:29:19.461Z,98729.66
2022-09-12T12:32:04.239Z,98734.72
2022-09-12T12:35:00.980Z,98737.75
2022-09-12T12:37:29.651Z,98735.66
2022-09-12T12:40:07.649Z,98655.78
2022-09-12T12:42:34.487Z,98735.81
2022-09-12T12:45:06.774Z,98739.75
2022-09-12T12:47:42.836Z,98739.25
2022-09-12T12:50:24.563Z,98778.34
2022-09-12T12:52:53.684Z,98760.22
2022-09-12T12:55:23.813Z,98744.06
2022-09-12T12:57:52.916Z,98708.41
2022-09-12T13:00:25.388Z,98726.63
2022-09-12T13:03:06.912Z,98773.66
2022-09-12T13:05:51.779Z,98710.31
2022-09-12T13:08:18.235Z,98743.84
2022-09-12T13:10:57.990Z,98739.72
2022-09-12T13:13:39.978Z,98742.06
2022-09-12T13:16:07.774Z,98707.56
2022-09-12T13:18:45.544Z,98742.59
2022-09-12T13:21:15.161Z,98689.81
2022-09-12T13:23:42.698Z,98712.22
2022-09-12T13:26:20.773Z,98831.16
2022-09-12T13:28:47.425Z,98616.19
2022-09-12T13:31:24.486Z,98689.38
2022-09-12T13:33:57.880Z,98540.28
2022-09-12T13:36:44.081Z,98794.63
2022-09-12T13:39:19.071Z,98726.63
2022-09-12T13:41:56.197Z,98658.53
2022-09-12T13:44:25.757Z,98738.56
2022-09-12T13:46:53.145Z,98697.34
2022-09-12T13:49:26.370Z,98676.13
2022-09-12T13:51:59.913Z,98714.53
2022-09-12T13:54:27.685Z,98694.75
2022-09-12T13:56:54.451Z,98708.91
2022-09-12T13:59:20.915Z,98773.06
2022-09-12T14:01:48.764Z,98778.13
2022-09-12T14:04:43.179Z,98649.31
2022-09-12T14:07:20.856Z,98547.16
2022-09-12T14:09:59.449Z,98832.56
2022-09-12T14:12:31.029Z,98776.69
2022-09-12T14:14:57.931Z,98783.81
2022-09-12T14:17:54.771Z,98782.19
2022-09-12T14:20:23.371Z,98698.25
2022-09-12T14:22:53.366Z,98756.59
2022-09-12T14:25:24.441Z,98748.88
2022-09-12T14:27:55.737Z,98785.03
2022-09-12T14:30:30.326Z,98782.44
2022-09-12T14:33:05.839Z,98782.44
2022-09-12T14:35:35.475Z,98691.53
2022-09-12T14:38:23.695Z,98691.66
2022-09-12T14:41:00.948Z,98748.47
2022-09-12T14:43:33.299Z,98679.22
2022-09-12T14:46:23.247Z,98785.03
2022-09-12T14:48:57.744Z,98786.56
2022-09-12T14:51:37.475Z,98791.66
2022-09-12T14:54:04.068Z,98789.75
2022-09-12T14:56:43.454Z,98788.34
2022-09-12T14:59:34.961Z,98795.34
2022-09-12T15:02:13.446Z,98795.59
2022-09-12T15:04:42.048Z,98796.44
2022-09-12T15:07:15.563Z,98800.00
2022-09-12T15:09:47.112Z,98796.94
2022-09-12T15:12:13.942Z,98802.09
2022-09-12T15:14:40.435Z,98806.88
2022-09-12T15:17:07.104Z,98798.75
2022-09-12T15:19:33.581Z,98773.06
2022-09-12T15:22:00.212Z,98814.84
2022-09-12T15:24:26.811Z,98780.38
2022-09-12T15:26:53.669Z,98789.72
2022-09-12T15:29:20.146Z,98824.91
2022-09-12T15:31:47.468Z,98789.50
2022-09-12T15:34:14.022Z,98823.38
2022-09-12T15:36:40.551Z,98811.44
2022-09-12T15:39:07.147Z,98820.91
2022-09-12T15:41:38.182Z,98868.88
2022-09-12T15:44:12.503Z,98786.56
2022-09-12T15:46:39.821Z,98744.00
2022-09-12T15:49:07.169Z,98794.81
2022-09-12T15:51:34.162Z,98569.00
2022-09-12T15:54:02.223Z,98784.34
2022-09-12T15:56:28.982Z,98671.63
2022-09-12T15:58:59.243Z,98769.03
2022-09-12T16:01:27.617Z,98694.72
2022-09-12T16:03:54.255Z,98807.75
2022-09-12T16:06:20.807Z,98830.19
2022-09-12T16:08:47.558Z,98815.81
2022-09-12T16:11:23.732Z,98859.59
2022-09-12T16:13:52.570Z,98751.22
2022-09-12T16:16:19.184Z,98779.59
2022-09-12T16:18:45.782Z,98853.31
2022-09-12T16:21:15.251Z,98828.56
2022-09-12T16:23:43.549Z,98795.22
2022-09-12T16:26:10.837Z,98755.50
2022-09-12T16:28:37.785Z,98855.81
2022-09-12T16:31:06.613Z,98852.28
2022-09-12T16:33:34.087Z,98711.47
2022-09-12T16:36:04.315Z,98874.28
2022-09-12T16:38:31.389Z,98793.97
2022-09-12T16:41:02.412Z,98860.19
2022-09-12T16:43:30.594Z,98705.84
2022-09-12T16:46:05.021Z,98825.03
2022-09-12T16:48:32.098Z,98867.66
2022-09-12T16:51:00.843Z,98680.09
2022-09-12T16:53:31.245Z,98836.03
2022-09-12T16:55:57.881Z,98412.25
2022-09-12T16:58:24.561Z,98848.81
2022-09-12T17:01:03.799Z,98769.47
2022-09-12T17:03:31.387Z,98840.28
2022-09-12T17:06:03.033Z,98879.16
2022-09-12T17:08:29.860Z,98881.63
2022-09-12T17:11:04.219Z,98882.59
2022-09-12T17:13:53.043Z,98851.41
2022-09-12T17:16:17.898Z,98878.53
2022-09-12T17:18:45.039Z,98881.84
2022-09-12T17:21:12.464Z,98614.44
2022-09-12T17:23:40.152Z,98888.66
2022-09-12T17:26:08.386Z,98758.97
2022-09-12T17:28:35.393Z,98882.34
2022-09-12T17:31:05.065Z,98809.22
2022-09-12T17:33:32.201Z,98884.53
2022-09-12T17:36:06.725Z,98888.78
2022-09-12T17:38:38.053Z,98855.47
2022-09-12T17:41:11.322Z,98879.06
2022-09-12T17:43:38.235Z,98854.31
2022-09-12T17:46:05.242Z,98862.34
2022-09-12T17:48:32.476Z,98891.88
2022-09-12T17:50:59.540Z,98830.31
2022-09-12T17:53:26.108Z,98889.59
2022-09-12T17:55:54.374Z,98753.03
2022-09-12T17:58:21.050Z,98877.78
2022-09-12T18:01:06.328Z,98840.09
2022-09-12T18:03:35.131Z,98795.94
2022-09-12T18:06:02.401Z,98897.09
2022-09-12T18:08:30.169Z,98716.41
2022-09-12T18:11:05.268Z,98757.28
2022-09-12T18:13:33.343Z,98891.38
2022-09-12T18:16:08.278Z,98886.00
2022-09-12T18:18:39.323Z,98847.69
2022-09-12T18:21:07.965Z,98894.25
2022-09-12T18:23:35.672Z,98886.66
2022-09-12T18:26:05.195Z,98834.25
2022-09-12T18:28:36.841Z,98886.56
2022-09-12T18:31:04.270Z,98892.84
2022-09-12T18:33:33.905Z,98891.66
2022-09-12T18:36:13.300Z,98888.09
2022-09-12T18:38:43.419Z,98887.16
2022-09-12T18:41:23.838Z,98857.88
2022-09-12T18:43:57.938Z,98889.06
2022-09-12T18:46:25.821Z,98853.50
2022-09-12T18:51:52.303Z,98844.41
2022-09-12T18:54:21.611Z,98889.88
2022-09-12T18:56:51.416Z,98889.06
2022-09-12T18:59:20.518Z,98884.69
2022-09-12T19:01:49.439Z,98881.38
2022-09-12T19:04:16.689Z,98806.38
2022-09-12T19:06:48.561Z,98892.84
2022-09-12T19:09:18.791Z,98890.00
2022-09-12T19:11:51.022Z,98891.41
2022-09-12T19:14:22.667Z,98890.22
2022-09-12T19:16:50.829Z,98889.28
2022-09-12T19:19:17.697Z,98891.16
2022-09-12T19:21:45.019Z,98894.25
2022-09-12T19:24:13.671Z,98892.63
2022-09-12T19:26:40.999Z,98894.03
2022-09-12T19:29:08.568Z,98892.13
2022-09-12T19:31:35.359Z,98847.38
2022-09-12T19:34:04.451Z,98813.69
2022-09-12T19:36:44.842Z,98898.28
2022-09-12T19:39:13.495Z,98890.00
2022-09-12T19:41:40.392Z,98754.22
2022-09-12T19:44:06.918Z,98891.56
2022-09-12T19:46:34.978Z,98810.91
2022-09-12T19:49:01.571Z,98788.25
2022-09-12T19:51:28.431Z,98729.53
2022-09-12T19:53:55.390Z,98891.69
2022-09-12T19:56:22.477Z,98715.28
2022-09-12T19:58:55.701Z,98882.09
2022-09-12T20:01:28.340Z,98861.94
2022-09-12T20:03:56.822Z,98885.28
2022-09-12T20:06:23.560Z,98895.56
2022-09-12T20:08:50.131Z,98888.72
2022-09-12T20:11:21.880Z,98889.66
2022-09-12T20:13:54.998Z,98886.81
2022-09-12T20:16:29.066Z,98745.22
2022-09-12T20:19:11.899Z,98427.88
2022-09-12T20:21:41.659Z,98889.06
2022-09-12T20:24:13.832Z,98851.84
2022-09-12T20:26:40.610Z,98672.50
2022-09-12T20:29:08.095Z,98844.16
2022-09-12T20:31:36.036Z,98849.63
2022-09-12T20:34:03.234Z,98874.03
2022-09-12T20:36:31.367Z,98880.19
2022-09-12T20:39:01.081Z,98875.81
2022-09-12T20:41:29.522Z,98756.09
2022-09-12T20:43:57.234Z,98690.47
2022-09-12T20:46:25.383Z,98874.63
2022-09-12T20:48:52.340Z,98885.25
2022-09-12T20:51:20.466Z,98765.50
2022-09-12T20:53:47.848Z,98835.44
2022-09-12T20:56:15.034Z,98814.91
2022-09-12T20:58:44.050Z,98771.44
2022-09-12T21:01:13.481Z,98887.88
2022-09-12T21:03:41.879Z,98856.31
2022-09-12T21:06:09.710Z,98887.03
2022-09-12T21:08:37.024Z,98829.19
2022-09-12T21:11:04.164Z,98884.81
2022-09-12T21:13:30.704Z,98876.75
2022-09-12T21:16:01.955Z,98874.84
2022-09-12T21:18:29.072Z,98871.41
2022-09-12T21:20:56.650Z,98866.44
2022-09-12T21:23:25.350Z,98912.63
2022-09-12T21:25:52.776Z,98868.94
2022-09-12T21:28:20.249Z,98844.13
2022-09-12T21:30:50.945Z,98871.88
2022-09-12T21:33:19.253Z,98754.84
2022-09-12T21:35:47.232Z,98871.88
2022-09-12T21:38:18.204Z,98865.97
2022-09-12T21:40:45.199Z,98753.09
2022-09-12T21:43:13.182Z,98829.31
2022-09-12T21:45:40.203Z,98861.13
2022-09-12T21:48:06.733Z,98791.00
2022-09-12T21:50:33.243Z,98881.38
2022-09-12T21:52:59.886Z,98866.31
2022-09-12T21:55:27.266Z,98875.09
2022-09-12T21:57:57.201Z,98905.59
2022-09-12T22:00:24.022Z,98868.31
2022-09-12T22:02:50.616Z,98866.91
2022-09-12T22:05:17.519Z,98724.44
2022-09-12T22:07:44.105Z,98825.25
2022-09-12T22:10:11.092Z,98873.69
2022-09-12T22:12:37.658Z,98876.63
2022-09-12T22:15:22.823Z,98878.97
2022-09-12T22:17:51.606Z,98872.69
2022-09-12T22:20:18.110Z,98858.91
2022-09-12T22:23:03.259Z,98876.84
2022-09-12T22:25:30.620Z,98782.03
2022-09-12T22:27:57.116Z,98883.81
2022-09-12T22:30:23.764Z,98879.31
2022-09-12T22:32:51.407Z,98827.16
2022-09-12T22:35:19.741Z,98819.84
2022-09-12T22:37:47.786Z,98842.59
2022-09-12T22:40:14.430Z,98827.53
2022-09-12T22:42:41.004Z,98811.69
2022-09-12T22:45:08.120Z,98893.91
2022-09-12T22:47:34.583Z,98819.38
2022-09-12T22:50:01.161Z,98883.25
2022-09-12T22:52:27.643Z,98893.78
2022-09-12T22:54:54.198Z,98896.13
2022-09-12T22:57:20.737Z,98850.75
2022-09-12T22:59:47.238Z,98759.81
2022-09-12T23:02:13.774Z,98808.47
2022-09-12T23:04:40.223Z,98896.66
2022-09-12T23:07:06.802Z,98850.06
2022-09-12T23:09:35.371Z,98863.16
2022-09-12T23:12:02.625Z,98893.47
2022-09-12T23:14:29.137Z,98898.81
2022-09-12T23:16:55.647Z,98896.34
2022-09-12T23:19:22.202Z,98890.44
2022-09-12T23:21:48.689Z,98888.38
2022-09-12T23:24:15.205Z,98854.63
2022-09-12T23:26:41.679Z,98890.88
2022-09-12T23:29:08.818Z,98880.72
2022-09-12T23:31:35.511Z,98800.31
2022-09-12T23:34:05.792Z,98882.34
2022-09-12T23:36:32.913Z,98746.50
2022-09-12T23:38:59.452Z,98873.91
2022-09-12T23:41:26.030Z,98821.00
2022-09-12T23:43:52.724Z,98877.66
2022-09-12T23:46:20.904Z,98788.84
2022-09-12T23:48:47.656Z,98818.63
2022-09-12T23:51:14.838Z,98860.88
2022-09-12T23:53:41.799Z,98872.91
2022-09-12T23:56:08.620Z,98817.56
2022-09-12T23:58:35.186Z,98872.22
